Time;durP1;ratioP1;P1;durP2;ratioP2;P2;SDS_P1;SDS_P2;PMS_P1;PMS_P2;Temp;Humidity;BMP_temperature;BMP_pressure;BME280_temperature;BME280_humidity;BME280_pressure;Samples;Min_cycle;Max_cycle;Signal;HPM_P1;HPM_P2
2023/08/17 00:02:40;;;;;;;13.25;7.57;;;;;;;;;;6261736;23;20174;-89
2023/08/17 00:05:45;;;;;;;15.50;7.47;;;;;;;;;;6262126;22;20165;-91
2023/08/17 00:08:50;;;;;;;10.32;7.22;;;;;;;;;;6259265;23;20167;-92
2023/08/17 00:11:55;;;;;;;14.90;7.40;;;;;;;;;;6260372;22;20239;-93
2023/08/17 00:15:01;;;;;;;16.52;7.43;;;;;;;;;;6261337;22;20213;-94
2023/08/17 00:18:07;;;;;;;12.15;7.30;;;;;;;;;;6259907;23;20278;-90
2023/08/17 00:21:12;;;;;;;12.63;7.50;;;;;;;;;;6261621;22;20170;-92
2023/08/17 00:24:17;;;;;;;14.38;8.43;;;;;;;;;;6258685;22;20163;-90
2023/08/17 00:27:23;;;;;;;12.52;7.70;;;;;;;;;;6261638;22;20182;-91
2023/08/17 00:30:28;;;;;;;10.35;7.90;;;;;;;;;;6259927;22;20162;-91
2023/08/17 00:33:35;;;;;;;15.50;8.40;;;;;;;;;;6264105;22;20183;-92
2023/08/17 00:36:40;;;;;;;15.85;8.23;;;;;;;;;;6263284;22;20162;-92
2023/08/17 00:39:45;;;;;;;11.63;8.20;;;;;;;;;;6260362;22;20166;-90
2023/08/17 00:42:51;;;;;;;15.65;8.77;;;;;;;;;;6259841;23;20162;-92
2023/08/17 00:45:57;;;;;;;11.80;8.60;;;;;;;;;;6258744;23;20166;-92
2023/08/17 00:49:03;;;;;;;12.57;8.60;;;;;;;;;;6259909;23;20159;-89
2023/08/17 00:52:08;;;;;;;12.60;8.65;;;;;;;;;;6261632;23;20352;-93
2023/08/17 00:55:14;;;;;;;13.48;8.95;;;;;;;;;;6260237;22;20174;-92
2023/08/17 00:58:19;;;;;;;21.80;9.88;;;;;;;;;;6260594;22;20170;-91
2023/08/17 01:01:24;;;;;;;17.45;8.13;;;;;;;;;;6259976;23;20162;-90
2023/08/17 01:04:31;;;;;;;16.40;8.25;;;;;;;;;;6259292;22;20161;-91
2023/08/17 01:07:37;;;;;;;13.88;8.00;;;;;;;;;;6261658;22;20167;-93
2023/08/17 01:10:48;;;;;;;17.00;8.77;;;;;;;;;;6260324;22;20217;-91
2023/08/17 01:13:57;;;;;;;19.27;8.80;;;;;;;;;;6261618;22;20167;-91
2023/08/17 01:17:05;;;;;;;13.40;8.25;;;;;;;;;;6262288;22;20163;-92
2023/08/17 01:20:13;;;;;;;11.43;7.90;;;;;;;;;;6262773;22;20152;-94
2023/08/17 01:23:20;;;;;;;10.30;7.45;;;;;;;;;;6262391;22;20174;-90
2023/08/17 01:26:25;;;;;;;12.90;7.85;;;;;;;;;;6260844;22;20287;-91
2023/08/17 01:29:32;;;;;;;13.75;8.15;;;;;;;;;;6260916;22;20171;-91
2023/08/17 01:32:39;;;;;;;13.80;8.70;;;;;;;;;;6261583;22;20182;-93
2023/08/17 01:35:48;;;;;;;20.88;8.15;;;;;;;;;;6262221;22;20235;-92
2023/08/17 01:38:56;;;;;;;17.17;8.43;;;;;;;;;;6261351;22;20163;-91
2023/08/17 01:42:03;;;;;;;12.40;8.52;;;;;;;;;;6259690;23;20488;-91
2023/08/17 01:45:08;;;;;;;13.80;8.15;;;;;;;;;;6259518;22;20209;-94
2023/08/17 01:48:14;;;;;;;10.55;7.82;;;;;;;;;;6260817;22;20217;-93
2023/08/17 01:51:20;;;;;;;14.13;7.60;;;;;;;;;;6260461;22;20229;-91
2023/08/17 01:54:27;;;;;;;15.00;7.75;;;;;;;;;;6260264;22;20237;-92
2023/08/17 01:57:32;;;;;;;15.82;8.05;;;;;;;;;;6257978;22;20165;-90
2023/08/17 02:00:38;;;;;;;12.05;7.32;;;;;;;;;;6256961;23;20254;-91
2023/08/17 02:03:43;;;;;;;15.85;7.82;;;;;;;;;;6258610;23;20627;-92
2023/08/17 02:06:48;;;;;;;11.70;7.28;;;;;;;;;;6258495;23;20170;-90
2023/08/17 02:09:55;;;;;;;12.65;7.32;;;;;;;;;;6258544;22;20198;-92
2023/08/17 02:13:01;;;;;;;12.73;7.63;;;;;;;;;;6259927;22;20197;-90
2023/08/17 02:16:06;;;;;;;10.63;7.40;;;;;;;;;;6260631;22;20186;-91
2023/08/17 02:19:11;;;;;;;11.57;7.88;;;;;;;;;;6261132;22;20285;-91
2023/08/17 02:22:17;;;;;;;13.30;7.38;;;;;;;;;;6260404;22;20227;-91
2023/08/17 02:25:26;;;;;;;16.48;8.45;;;;;;;;;;6261085;22;20230;-91
2023/08/17 02:28:31;;;;;;;15.48;8.93;;;;;;;;;;6261554;22;20166;-90
2023/08/17 02:31:37;;;;;;;13.93;8.85;;;;;;;;;;6261876;22;20197;-92
2023/08/17 02:34:42;;;;;;;16.67;8.52;;;;;;;;;;6262109;22;20614;-92
2023/08/17 02:37:48;;;;;;;14.77;7.88;;;;;;;;;;6260651;23;20166;-91
2023/08/17 02:40:55;;;;;;;13.85;8.20;;;;;;;;;;6260734;22;20170;-93
2023/08/17 02:44:00;;;;;;;18.17;8.52;;;;;;;;;;6261061;22;20495;-90
2023/08/17 02:47:05;;;;;;;15.93;7.95;;;;;;;;;;6260888;23;20241;-91
2023/08/17 02:50:11;;;;;;;14.10;8.35;;;;;;;;;;6261320;22;20215;-92
2023/08/17 02:53:17;;;;;;;13.18;8.75;;;;;;;;;;6259881;22;20233;-91
2023/08/17 02:56:24;;;;;;;13.52;8.73;;;;;;;;;;6260410;22;20223;-91
2023/08/17 02:59:29;;;;;;;15.85;9.05;;;;;;;;;;6260645;22;20232;-91
2023/08/17 03:02:34;;;;;;;13.25;8.55;;;;;;;;;;6260193;22;20166;-91
2023/08/17 03:05:41;;;;;;;13.25;8.02;;;;;;;;;;6261690;22;20219;-92
2023/08/17 03:08:46;;;;;;;17.40;8.35;;;;;;;;;;6260911;23;20659;-92
2023/08/17 03:11:53;;;;;;;18.48;8.02;;;;;;;;;;6262499;22;20191;-88
2023/08/17 03:14:59;;;;;;;13.00;8.25;;;;;;;;;;6258949;22;20189;-89
2023/08/17 03:18:04;;;;;;;16.02;7.82;;;;;;;;;;6258449;22;20174;-89
2023/08/17 03:21:10;;;;;;;16.83;8.80;;;;;;;;;;6258661;22;20159;-90
2023/08/17 03:24:15;;;;;;;17.88;8.73;;;;;;;;;;6259596;22;20162;-90
2023/08/17 03:27:22;;;;;;;13.52;8.02;;;;;;;;;;6256966;23;20170;-91
2023/08/17 03:30:27;;;;;;;15.18;9.20;;;;;;;;;;6258670;22;20150;-92
2023/08/17 03:33:33;;;;;;;17.60;9.30;;;;;;;;;;6260142;23;20175;-90
2023/08/17 03:36:39;;;;;;;13.68;9.00;;;;;;;;;;6257781;23;20161;-88
2023/08/17 03:39:44;;;;;;;13.98;8.85;;;;;;;;;;6258404;23;20175;-91
2023/08/17 03:42:50;;;;;;;18.60;9.05;;;;;;;;;;6257826;23;20195;-89
2023/08/17 03:45:56;;;;;;;11.70;9.05;;;;;;;;;;6259328;23;20154;-92
2023/08/17 03:49:01;;;;;;;18.77;9.95;;;;;;;;;;6258806;23;20257;-91
2023/08/17 03:52:07;;;;;;;16.63;8.73;;;;;;;;;;6259039;22;20625;-92
2023/08/17 03:55:12;;;;;;;17.17;9.65;;;;;;;;;;6259881;23;20166;-90
2023/08/17 03:58:20;;;;;;;16.92;8.80;;;;;;;;;;6260279;23;20178;-90
2023/08/17 04:01:51;;;;;;;20.98;9.43;;;;;;;;;;6261167;22;20239;-92
2023/08/17 04:04:56;;;;;;;14.57;8.70;;;;;;;;;;6260672;23;20158;-88
2023/08/17 04:08:02;;;;;;;14.27;8.98;;;;;;;;;;6260307;22;20150;-92
2023/08/17 04:11:08;;;;;;;20.85;14.10;;;;;;;;;;6260404;22;20154;-90
2023/08/17 04:14:15;;;;;;;19.00;9.40;;;;;;;;;;6260439;22;20171;-92
2023/08/17 04:17:20;;;;;;;16.45;8.75;;;;;;;;;;6262715;22;20166;-92
2023/08/17 04:20:26;;;;;;;16.25;8.55;;;;;;;;;;6263475;22;20199;-90
2023/08/17 04:23:31;;;;;;;15.35;8.93;;;;;;;;;;6264387;22;20614;-89
2023/08/17 04:26:38;;;;;;;16.73;9.23;;;;;;;;;;6265323;23;20171;-91
2023/08/17 04:29:46;;;;;;;14.45;8.93;;;;;;;;;;6280990;22;20170;-90
2023/08/17 04:32:53;;;;;;;14.90;9.45;;;;;;;;;;6264676;22;20275;-94
2023/08/17 04:36:00;;;;;;;17.27;8.90;;;;;;;;;;6265302;22;20288;-91
2023/08/17 04:39:09;;;;;;;12.35;8.88;;;;;;;;;;6265524;22;20166;-91
2023/08/17 04:42:14;;;;;;;15.15;8.60;;;;;;;;;;6267397;22;20166;-90
2023/08/17 04:45:37;;;;;;;13.75;9.40;;;;;;;;;;6266549;22;20170;-92
2023/08/17 04:48:44;;;;;;;12.88;8.27;;;;;;;;;;6264646;22;20249;-90
2023/08/17 04:51:51;;;;;;;18.20;8.90;;;;;;;;;;6264962;22;20791;-88
2023/08/17 04:54:58;;;;;;;17.75;8.88;;;;;;;;;;6265483;22;20465;-90
2023/08/17 04:58:04;;;;;;;18.17;10.13;;;;;;;;;;6263507;22;20166;-92
2023/08/17 05:01:10;;;;;;;14.32;8.48;;;;;;;;;;6263009;22;20281;-90
2023/08/17 05:04:17;;;;;;;16.63;9.23;;;;;;;;;;6263221;22;20243;-93
2023/08/17 05:07:27;;;;;;;20.20;9.48;;;;;;;;;;6261807;22;20205;-92
2023/08/17 05:10:33;;;;;;;14.32;9.07;;;;;;;;;;6261433;22;20150;-92
2023/08/17 05:13:38;;;;;;;26.92;12.63;;;;;;;;;;6258785;23;20253;-89
2023/08/17 05:16:44;;;;;;;15.98;9.40;;;;;;;;;;6258051;22;20609;-93
2023/08/17 05:19:52;;;;;;;18.95;10.82;;;;;;;;;;6258609;22;20190;-92
2023/08/17 05:22:57;;;;;;;16.27;9.73;;;;;;;;;;6258650;22;20209;-90
2023/08/17 05:26:03;;;;;;;17.63;10.50;;;;;;;;;;6262248;22;20146;-89
2023/08/17 05:29:09;;;;;;;19.35;10.85;;;;;;;;;;6264387;23;20244;-92
2023/08/17 05:32:14;;;;;;;15.02;10.50;;;;;;;;;;6261558;22;20193;-91
2023/08/17 05:35:22;;;;;;;14.40;10.25;;;;;;;;;;6263126;22;20167;-93
2023/08/17 05:38:28;;;;;;;21.77;10.73;;;;;;;;;;6261292;22;20508;-91
2023/08/17 05:41:34;;;;;;;16.95;10.93;;;;;;;;;;6260391;22;20166;-89
2023/08/17 05:44:41;;;;;;;18.63;10.60;;;;;;;;;;6263107;23;20669;-90
2023/08/17 05:47:46;;;;;;;20.27;10.80;;;;;;;;;;6261298;22;20167;-91
2023/08/17 05:50:52;;;;;;;12.57;8.80;;;;;;;;;;6263031;22;20154;-91
2023/08/17 05:53:57;;;;;;;13.23;9.02;;;;;;;;;;6258951;22;20197;-89
2023/08/17 05:57:04;;;;;;;17.15;8.30;;;;;;;;;;6259453;22;20163;-91
2023/08/17 06:00:12;;;;;;;18.17;8.18;;;;;;;;;;6259259;22;20182;-92
2023/08/17 06:03:21;;;;;;;16.63;8.48;;;;;;;;;;6257561;22;20166;-92
2023/08/17 06:06:28;;;;;;;14.35;7.97;;;;;;;;;;6259174;22;20254;-91
2023/08/17 06:09:34;;;;;;;16.05;8.05;;;;;;;;;;6258617;23;20174;-90
2023/08/17 06:12:39;;;;;;;10.68;7.18;;;;;;;;;;6262904;22;20201;-90
2023/08/17 06:15:44;;;;;;;11.82;6.50;;;;;;;;;;6262571;23;20171;-90
2023/08/17 06:18:50;;;;;;;15.10;6.43;;;;;;;;;;6263497;22;20166;-90
2023/08/17 06:21:56;;;;;;;16.05;7.00;;;;;;;;;;6263435;22;20159;-92
2023/08/17 06:25:03;;;;;;;13.40;6.40;;;;;;;;;;6263715;22;20147;-88
2023/08/17 06:28:08;;;;;;;11.55;6.68;;;;;;;;;;6263585;23;20170;-91
2023/08/17 06:31:16;;;;;;;13.60;6.75;;;;;;;;;;6263564;22;20274;-91
2023/08/17 06:34:22;;;;;;;17.02;7.15;;;;;;;;;;6263687;22;20165;-86
2023/08/17 06:37:29;;;;;;;11.38;6.45;;;;;;;;;;6260059;23;20310;-88
2023/08/17 06:40:34;;;;;;;17.60;6.95;;;;;;;;;;6242943;23;20227;-89
2023/08/17 06:43:40;;;;;;;11.57;6.75;;;;;;;;;;6260721;22;20299;-89
2023/08/17 06:46:45;;;;;;;9.18;6.10;;;;;;;;;;6261220;22;20167;-89
2023/08/17 06:49:51;;;;;;;11.57;6.28;;;;;;;;;;6278687;22;20158;-91
2023/08/17 06:52:58;;;;;;;13.75;6.63;;;;;;;;;;6258357;23;20210;-89
2023/08/17 06:56:03;;;;;;;9.43;5.80;;;;;;;;;;6257674;22;20221;-90
2023/08/17 06:59:09;;;;;;;9.18;6.45;;;;;;;;;;6257540;22;20170;-90
2023/08/17 07:02:15;;;;;;;12.05;6.63;;;;;;;;;;6259388;22;20165;-91
2023/08/17 07:05:20;;;;;;;7.45;6.20;;;;;;;;;;6257637;22;20253;-91
2023/08/17 07:08:27;;;;;;;15.10;8.80;;;;;;;;;;6257529;23;20166;-87
2023/08/17 07:11:32;;;;;;;19.00;6.93;;;;;;;;;;6259581;22;20166;-91
2023/08/17 07:14:37;;;;;;;13.60;6.88;;;;;;;;;;6259787;22;20500;-89
2023/08/17 07:17:45;;;;;;;11.82;6.30;;;;;;;;;;6263120;22;20166;-90
2023/08/17 07:20:50;;;;;;;11.82;6.55;;;;;;;;;;6262901;22;20236;-89
2023/08/17 07:23:57;;;;;;;11.48;6.85;;;;;;;;;;6262747;23;20170;-89
2023/08/17 07:27:04;;;;;;;9.73;6.60;;;;;;;;;;6261146;22;20146;-91
2023/08/17 07:30:10;;;;;;;12.23;6.63;;;;;;;;;;6258806;23;20179;-89
2023/08/17 07:33:15;;;;;;;11.85;6.50;;;;;;;;;;6277037;22;20193;-89
2023/08/17 07:36:20;;;;;;;13.90;6.65;;;;;;;;;;6260781;22;20224;-89
2023/08/17 07:39:27;;;;;;;9.90;6.72;;;;;;;;;;6259639;23;20867;-90
2023/08/17 07:42:33;;;;;;;10.15;5.97;;;;;;;;;;6264753;23;20238;-88
2023/08/17 07:45:39;;;;;;;12.07;5.70;;;;;;;;;;6265166;22;20166;-89
2023/08/17 07:48:44;;;;;;;11.45;6.28;;;;;;;;;;6260539;22;20166;-92
2023/08/17 07:51:49;;;;;;;8.93;5.80;;;;;;;;;;6259254;23;20214;-92
2023/08/17 07:54:56;;;;;;;13.57;5.97;;;;;;;;;;6259922;22;20162;-91
2023/08/17 07:58:02;;;;;;;11.93;5.60;;;;;;;;;;6260197;23;20212;-90
2023/08/17 08:01:07;;;;;;;12.25;5.85;;;;;;;;;;6261629;23;20222;-89
2023/08/17 08:04:12;;;;;;;17.75;6.40;;;;;;;;;;6264511;22;20170;-89
2023/08/17 08:07:17;;;;;;;11.40;5.85;;;;;;;;;;6262917;22;20202;-93
2023/08/17 08:10:24;;;;;;;7.40;5.55;;;;;;;;;;6263149;22;20186;-91
2023/08/17 08:13:30;;;;;;;7.55;5.20;;;;;;;;;;6261133;22;20194;-90
2023/08/17 08:16:35;;;;;;;13.05;5.90;;;;;;;;;;6262067;22;20166;-89
2023/08/17 08:19:40;;;;;;;9.20;5.72;;;;;;;;;;6260119;22;20178;-89
2023/08/17 08:22:45;;;;;;;11.82;5.82;;;;;;;;;;6260153;22;20177;-91
2023/08/17 08:25:51;;;;;;;8.48;5.57;;;;;;;;;;6260799;22;20158;-91
2023/08/17 08:28:56;;;;;;;10.00;5.60;;;;;;;;;;6259854;22;20177;-90
2023/08/17 08:32:02;;;;;;;8.60;5.60;;;;;;;;;;6259324;23;20174;-90
2023/08/17 08:35:10;;;;;;;10.70;5.68;;;;;;;;;;6261244;23;20177;-89
2023/08/17 08:38:16;;;;;;;8.68;5.32;;;;;;;;;;6260196;22;20157;-90
2023/08/17 08:41:23;;;;;;;6.93;5.22;;;;;;;;;;6261021;22;20174;-92
2023/08/17 08:44:28;;;;;;;6.82;4.80;;;;;;;;;;6261910;22;20181;-90
2023/08/17 08:47:35;;;;;;;10.07;5.35;;;;;;;;;;6260410;22;20169;-90
2023/08/17 08:50:41;;;;;;;7.45;5.22;;;;;;;;;;6258630;23;20166;-92
2023/08/17 08:53:47;;;;;;;8.73;5.05;;;;;;;;;;6260924;23;20315;-90
2023/08/17 08:56:56;;;;;;;10.35;4.82;;;;;;;;;;6261092;22;20169;-93
2023/08/17 09:00:04;;;;;;;7.43;5.35;;;;;;;;;;6260696;23;20213;-89
2023/08/17 09:03:10;;;;;;;14.90;5.70;;;;;;;;;;6260199;23;20178;-89
2023/08/17 09:06:16;;;;;;;7.70;5.32;;;;;;;;;;6261487;22;20358;-91
2023/08/17 09:09:22;;;;;;;12.10;5.47;;;;;;;;;;6259654;22;20185;-91
2023/08/17 09:12:29;;;;;;;9.63;5.13;;;;;;;;;;6261170;22;20177;-91
2023/08/17 09:15:34;;;;;;;8.75;6.05;;;;;;;;;;6259910;22;20180;-90
2023/08/17 09:18:39;;;;;;;7.15;5.22;;;;;;;;;;6259386;23;20186;-87
2023/08/17 09:21:45;;;;;;;8.60;5.15;;;;;;;;;;6260953;23;20212;-91
2023/08/17 09:24:50;;;;;;;12.25;5.65;;;;;;;;;;6260985;22;20158;-91
2023/08/17 09:28:00;;;;;;;8.15;5.07;;;;;;;;;;6260012;23;20185;-89
2023/08/17 09:31:05;;;;;;;8.10;5.78;;;;;;;;;;6259930;23;20241;-93
2023/08/17 09:34:10;;;;;;;9.07;5.53;;;;;;;;;;6258825;22;20193;-91
2023/08/17 09:37:16;;;;;;;7.93;6.05;;;;;;;;;;6261577;22;20199;-90
2023/08/17 09:40:21;;;;;;;8.40;5.72;;;;;;;;;;6260101;22;20169;-93
2023/08/17 09:43:30;;;;;;;16.10;5.78;;;;;;;;;;6259065;22;20169;-91
2023/08/17 09:46:35;;;;;;;8.25;5.75;;;;;;;;;;6262584;22;20150;-91
2023/08/17 09:49:40;;;;;;;7.25;5.53;;;;;;;;;;6261060;23;20166;-90
2023/08/17 09:52:46;;;;;;;13.20;5.55;;;;;;;;;;6260771;22;20238;-91
2023/08/17 09:55:51;;;;;;;7.78;5.57;;;;;;;;;;6260695;23;20165;-91
2023/08/17 09:58:59;;;;;;;12.85;5.75;;;;;;;;;;6260032;22;20166;-89
2023/08/17 10:02:05;;;;;;;12.07;5.90;;;;;;;;;;6261345;23;20609;-90
2023/08/17 10:05:13;;;;;;;7.13;5.85;;;;;;;;;;6264652;22;20201;-89
2023/08/17 10:08:21;;;;;;;8.45;5.85;;;;;;;;;;6258381;22;20174;-89
2023/08/17 10:11:28;;;;;;;10.00;5.85;;;;;;;;;;6260569;23;20213;-89
2023/08/17 10:14:37;;;;;;;9.35;6.45;;;;;;;;;;6262421;22;20201;-93
2023/08/17 10:17:46;;;;;;;10.00;5.72;;;;;;;;;;6259398;22;20170;-92
2023/08/17 10:20:53;;;;;;;10.40;5.70;;;;;;;;;;6259673;23;20248;-89
2023/08/17 10:23:59;;;;;;;6.65;5.40;;;;;;;;;;6257836;22;20165;-89
2023/08/17 10:27:05;;;;;;;14.43;5.82;;;;;;;;;;6258640;23;20170;-90
2023/08/17 10:30:14;;;;;;;10.05;5.85;;;;;;;;;;6258794;23;20217;-92
2023/08/17 10:33:20;;;;;;;9.05;5.93;;;;;;;;;;6259820;22;20161;-91
2023/08/17 10:36:25;;;;;;;10.25;5.40;;;;;;;;;;6257073;22;20238;-92
2023/08/17 10:39:31;;;;;;;8.70;5.07;;;;;;;;;;6259731;22;20149;-90
2023/08/17 10:42:37;;;;;;;13.55;5.97;;;;;;;;;;6259315;22;20166;-90
2023/08/17 10:45:47;;;;;;;8.93;5.78;;;;;;;;;;6260370;22;20652;-91
2023/08/17 10:48:53;;;;;;;10.85;6.20;;;;;;;;;;6258738;22;20220;-92
2023/08/17 10:52:04;;;;;;;13.05;5.75;;;;;;;;;;6257296;23;20258;-90
2023/08/17 10:55:14;;;;;;;8.95;5.90;;;;;;;;;;6261385;22;20229;-91
2023/08/17 10:58:20;;;;;;;12.18;5.75;;;;;;;;;;6259156;22;20166;-90
2023/08/17 11:01:36;;;;;;;9.00;5.45;;;;;;;;;;6261377;22;20224;-93
2023/08/17 11:04:43;;;;;;;12.82;6.03;;;;;;;;;;6258798;22;20387;-90
2023/08/17 11:07:49;;;;;;;7.93;5.60;;;;;;;;;;6257187;22;20154;-89
2023/08/17 11:11:01;;;;;;;10.02;5.32;;;;;;;;;;6257852;22;20186;-90
2023/08/17 11:14:06;;;;;;;10.55;5.30;;;;;;;;;;6259709;22;20189;-90
2023/08/17 11:17:13;;;;;;;10.25;5.07;;;;;;;;;;6258111;23;20217;-89
2023/08/17 11:20:18;;;;;;;8.50;5.50;;;;;;;;;;6256705;23;20166;-90
2023/08/17 11:23:24;;;;;;;9.00;4.88;;;;;;;;;;6256276;22;20162;-90
2023/08/17 11:26:29;;;;;;;8.20;5.53;;;;;;;;;;6257903;23;20153;-89
2023/08/17 11:29:35;;;;;;;6.88;5.22;;;;;;;;;;6258108;23;20165;-92
2023/08/17 11:32:41;;;;;;;8.60;5.10;;;;;;;;;;6259307;22;20165;-89
2023/08/17 11:35:49;;;;;;;7.90;5.45;;;;;;;;;;6262790;22;20157;-90
2023/08/17 11:38:55;;;;;;;8.38;5.63;;;;;;;;;;6262486;22;20194;-92
2023/08/17 11:42:00;;;;;;;7.60;4.78;;;;;;;;;;6263499;22;20206;-91
2023/08/17 11:45:06;;;;;;;7.80;5.22;;;;;;;;;;6263529;22;20220;-89
2023/08/17 11:48:16;;;;;;;8.82;5.10;;;;;;;;;;6262043;22;20209;-94
2023/08/17 11:51:30;;;;;;;9.32;5.10;;;;;;;;;;6262632;22;20209;-93
2023/08/17 11:54:36;;;;;;;5.82;4.95;;;;;;;;;;6260935;22;20324;-93
2023/08/17 11:57:41;;;;;;;9.63;5.32;;;;;;;;;;6262684;22;20157;-92
2023/08/17 12:00:47;;;;;;;6.00;4.88;;;;;;;;;;6262704;22;20165;-91
2023/08/17 12:03:55;;;;;;;9.68;4.47;;;;;;;;;;6262589;23;20240;-91
2023/08/17 12:07:01;;;;;;;6.53;4.78;;;;;;;;;;6264705;22;20150;-91
2023/08/17 12:10:07;;;;;;;7.15;4.32;;;;;;;;;;6265627;22;20210;-91
2023/08/17 12:13:14;;;;;;;5.20;4.57;;;;;;;;;;6265298;22;20192;-90
2023/08/17 12:16:20;;;;;;;6.22;4.35;;;;;;;;;;6264455;22;20185;-90
2023/08/17 12:19:28;;;;;;;8.30;5.10;;;;;;;;;;6262275;23;20165;-90
2023/08/17 12:22:33;;;;;;;9.65;4.50;;;;;;;;;;6263811;22;20170;-93
2023/08/17 12:25:38;;;;;;;9.23;4.78;;;;;;;;;;6263778;22;20162;-91
2023/08/17 12:28:47;;;;;;;8.80;4.50;;;;;;;;;;6261064;23;20176;-89
2023/08/17 12:31:53;;;;;;;9.70;5.20;;;;;;;;;;6262462;22;20162;-90
2023/08/17 12:35:01;;;;;;;9.40;4.63;;;;;;;;;;6264066;22;20193;-91
2023/08/17 12:38:06;;;;;;;8.18;4.57;;;;;;;;;;6262733;22;20165;-92
2023/08/17 12:41:11;;;;;;;8.13;4.72;;;;;;;;;;6263788;22;20235;-92
2023/08/17 12:44:16;;;;;;;10.02;4.90;;;;;;;;;;6261276;22;20627;-90
2023/08/17 12:47:22;;;;;;;12.23;5.13;;;;;;;;;;6262741;23;20498;-91
2023/08/17 12:50:30;;;;;;;6.82;5.07;;;;;;;;;;6262239;23;20170;-92
2023/08/17 12:53:38;;;;;;;6.70;4.55;;;;;;;;;;6261887;22;20531;-90
2023/08/17 12:56:45;;;;;;;11.32;5.20;;;;;;;;;;6262408;22;20186;-92
2023/08/17 12:59:51;;;;;;;6.75;4.50;;;;;;;;;;6262485;22;20169;-92
2023/08/17 13:02:56;;;;;;;12.90;4.65;;;;;;;;;;6262505;23;20185;-92
2023/08/17 13:06:03;;;;;;;7.90;4.70;;;;;;;;;;6264543;22;20199;-90
2023/08/17 13:09:08;;;;;;;6.78;4.45;;;;;;;;;;6262416;22;20176;-91
2023/08/17 13:12:13;;;;;;;8.27;4.63;;;;;;;;;;6261083;22;20523;-90
2023/08/17 13:15:21;;;;;;;8.25;4.40;;;;;;;;;;6260375;22;20190;-90
2023/08/17 13:18:28;;;;;;;8.35;4.68;;;;;;;;;;6260151;23;20617;-93
2023/08/17 13:21:35;;;;;;;5.35;4.30;;;;;;;;;;6262363;23;20173;-91
2023/08/17 13:24:41;;;;;;;8.70;4.43;;;;;;;;;;6261639;23;20185;-91
2023/08/17 13:27:46;;;;;;;8.65;4.63;;;;;;;;;;6259944;22;20173;-93
2023/08/17 13:30:51;;;;;;;9.45;4.47;;;;;;;;;;6259276;22;20170;-90
2023/08/17 13:33:57;;;;;;;7.55;4.53;;;;;;;;;;6260151;23;20150;-90
2023/08/17 13:37:03;;;;;;;7.43;4.40;;;;;;;;;;6259056;23;20182;-89
2023/08/17 13:40:10;;;;;;;12.48;4.40;;;;;;;;;;6259527;23;20238;-91
2023/08/17 13:43:14;;;;;;;9.45;4.70;;;;;;;;;;6258798;22;20165;-90
2023/08/17 13:46:20;;;;;;;7.57;4.55;;;;;;;;;;6259249;22;20507;-93
2023/08/17 13:49:25;;;;;;;8.57;4.60;;;;;;;;;;6258081;23;20236;-89
2023/08/17 13:52:32;;;;;;;12.57;4.72;;;;;;;;;;6260289;22;20190;-89
2023/08/17 13:55:37;;;;;;;7.30;4.40;;;;;;;;;;6257599;23;20245;-90
2023/08/17 13:58:42;;;;;;;14.35;4.68;;;;;;;;;;6259023;22;20169;-89
2023/08/17 14:01:47;;;;;;;9.50;4.03;;;;;;;;;;6258050;22;20170;-91
2023/08/17 14:04:52;;;;;;;6.90;4.40;;;;;;;;;;6261120;22;20157;-93
2023/08/17 14:07:59;;;;;;;10.27;4.50;;;;;;;;;;6262085;22;20161;-90
2023/08/17 14:11:06;;;;;;;11.98;4.53;;;;;;;;;;6260730;23;20173;-91
2023/08/17 14:14:12;;;;;;;8.35;4.43;;;;;;;;;;6278879;22;20285;-90
2023/08/17 14:17:17;;;;;;;6.97;4.45;;;;;;;;;;6259167;23;20162;-90
2023/08/17 14:20:25;;;;;;;5.88;4.40;;;;;;;;;;6259194;23;20150;-92
2023/08/17 14:23:32;;;;;;;13.50;5.35;;;;;;;;;;6260424;22;20169;-91
2023/08/17 14:26:38;;;;;;;7.22;4.40;;;;;;;;;;6259815;22;20169;-91
2023/08/17 14:29:47;;;;;;;5.78;4.45;;;;;;;;;;6259679;22;20166;-90
2023/08/17 14:32:53;;;;;;;9.63;5.30;;;;;;;;;;6261062;22;20162;-91
2023/08/17 14:35:58;;;;;;;11.57;4.97;;;;;;;;;;6258755;22;20173;-90
2023/08/17 14:39:05;;;;;;;8.15;4.43;;;;;;;;;;6261634;22;20182;-93
2023/08/17 14:42:11;;;;;;;6.03;4.68;;;;;;;;;;6261099;22;20225;-92
2023/08/17 14:45:16;;;;;;;10.55;5.00;;;;;;;;;;6260505;22;20170;-91
2023/08/17 14:48:21;;;;;;;8.57;4.85;;;;;;;;;;6257295;22;20178;-91
2023/08/17 14:51:27;;;;;;;9.15;5.03;;;;;;;;;;6258843;23;20193;-91
2023/08/17 14:54:34;;;;;;;14.38;5.95;;;;;;;;;;6258864;22;20173;-94
2023/08/17 14:57:42;;;;;;;9.93;5.10;;;;;;;;;;6260164;23;20170;-90
2023/08/17 15:00:47;;;;;;;9.10;5.18;;;;;;;;;;6259768;23;20165;-91
2023/08/17 15:03:52;;;;;;;10.20;5.50;;;;;;;;;;6258890;22;20165;-90
2023/08/17 15:06:58;;;;;;;9.18;4.90;;;;;;;;;;6257286;22;20162;-92
2023/08/17 15:10:04;;;;;;;7.32;4.80;;;;;;;;;;6260309;23;20153;-90
2023/08/17 15:13:09;;;;;;;9.35;5.40;;;;;;;;;;6260386;23;20169;-91
2023/08/17 15:16:14;;;;;;;7.43;5.13;;;;;;;;;;6260370;23;20252;-90
2023/08/17 15:19:19;;;;;;;10.55;5.15;;;;;;;;;;6259591;22;20196;-89
2023/08/17 15:22:25;;;;;;;9.05;5.32;;;;;;;;;;6259727;23;20166;-90
2023/08/17 15:25:32;;;;;;;8.68;5.35;;;;;;;;;;6258909;22;20173;-89
2023/08/17 15:28:37;;;;;;;8.52;5.43;;;;;;;;;;6259229;23;20165;-90
2023/08/17 15:31:43;;;;;;;7.75;5.47;;;;;;;;;;6259543;23;20181;-91
2023/08/17 15:34:48;;;;;;;9.40;5.63;;;;;;;;;;6261590;23;20270;-89
2023/08/17 15:37:53;;;;;;;8.18;5.90;;;;;;;;;;6259908;23;20277;-91
2023/08/17 15:41:00;;;;;;;9.30;4.60;;;;;;;;;;6259008;23;20612;-90
2023/08/17 15:44:05;;;;;;;6.18;4.20;;;;;;;;;;6257762;23;20153;-89
2023/08/17 15:47:10;;;;;;;7.38;4.70;;;;;;;;;;6258568;23;20166;-89
2023/08/17 15:50:16;;;;;;;7.35;5.30;;;;;;;;;;6260194;22;20749;-89
2023/08/17 15:53:22;;;;;;;7.78;4.85;;;;;;;;;;6260484;22;20162;-90
2023/08/17 15:56:29;;;;;;;7.95;5.22;;;;;;;;;;6258297;22;20615;-91
2023/08/17 15:59:35;;;;;;;8.38;5.78;;;;;;;;;;6258237;23;20170;-91
2023/08/17 16:02:41;;;;;;;11.43;5.80;;;;;;;;;;6259576;23;20175;-89
2023/08/17 16:05:46;;;;;;;9.13;5.57;;;;;;;;;;6261748;23;20162;-91
2023/08/17 16:08:51;;;;;;;6.10;5.13;;;;;;;;;;6259297;23;20171;-91
2023/08/17 16:11:58;;;;;;;10.30;5.15;;;;;;;;;;6260646;22;20273;-91
2023/08/17 16:15:04;;;;;;;7.68;5.47;;;;;;;;;;6260406;23;20189;-89
2023/08/17 16:18:10;;;;;;;11.32;6.10;;;;;;;;;;6262235;22;20146;-91
2023/08/17 16:21:15;;;;;;;10.77;5.63;;;;;;;;;;6265445;22;20158;-91
2023/08/17 16:24:21;;;;;;;10.55;5.70;;;;;;;;;;6262337;22;20170;-90
2023/08/17 16:27:27;;;;;;;9.23;6.13;;;;;;;;;;6260544;22;20183;-92
2023/08/17 16:30:35;;;;;;;8.43;5.80;;;;;;;;;;6262331;22;20166;-92
2023/08/17 16:33:40;;;;;;;10.95;6.03;;;;;;;;;;6261810;22;20170;-91
2023/08/17 16:36:45;;;;;;;10.85;5.55;;;;;;;;;;6261768;22;20197;-92
2023/08/17 16:39:50;;;;;;;11.50;5.80;;;;;;;;;;6263390;22;20540;-91
2023/08/17 16:42:57;;;;;;;11.52;5.53;;;;;;;;;;6264286;22;20189;-90
2023/08/17 16:46:03;;;;;;;9.90;6.00;;;;;;;;;;6262422;22;20162;-92
2023/08/17 16:49:08;;;;;;;12.20;6.40;;;;;;;;;;6258780;22;20159;-89
2023/08/17 16:52:13;;;;;;;12.88;6.70;;;;;;;;;;6260122;23;20209;-91
2023/08/17 16:55:19;;;;;;;11.07;6.80;;;;;;;;;;6262032;22;20195;-91
2023/08/17 16:58:27;;;;;;;16.08;8.55;;;;;;;;;;6280547;22;20162;-94
2023/08/17 17:01:33;;;;;;;11.50;7.32;;;;;;;;;;6262315;22;20504;-92
2023/08/17 17:04:39;;;;;;;14.25;7.75;;;;;;;;;;6263199;22;20178;-91
2023/08/17 17:07:45;;;;;;;15.32;7.18;;;;;;;;;;6264169;23;20194;-90
2023/08/17 17:10:50;;;;;;;10.90;7.13;;;;;;;;;;6280659;22;20155;-92
2023/08/17 17:13:57;;;;;;;10.18;6.85;;;;;;;;;;6263603;23;20166;-93
2023/08/17 17:17:02;;;;;;;11.85;7.43;;;;;;;;;;6263920;22;20254;-91
2023/08/17 17:20:10;;;;;;;12.88;7.93;;;;;;;;;;6261893;22;20186;-90
2023/08/17 17:23:15;;;;;;;16.17;7.35;;;;;;;;;;6262806;22;20186;-92
2023/08/17 17:26:21;;;;;;;14.70;7.95;;;;;;;;;;6262674;23;20239;-91
2023/08/17 17:29:28;;;;;;;18.50;8.25;;;;;;;;;;6261601;22;20166;-91
2023/08/17 17:32:33;;;;;;;17.70;8.45;;;;;;;;;;6263654;23;20199;-91
2023/08/17 17:35:39;;;;;;;13.95;8.55;;;;;;;;;;6263016;22;20190;-90
2023/08/17 17:38:44;;;;;;;15.15;8.82;;;;;;;;;;6260285;22;20174;-93
2023/08/17 17:41:49;;;;;;;12.65;8.40;;;;;;;;;;6261090;22;20162;-90
2023/08/17 17:44:56;;;;;;;17.95;9.38;;;;;;;;;;6260504;22;20231;-92
2023/08/17 17:48:01;;;;;;;16.75;8.43;;;;;;;;;;6261214;22;20170;-91
2023/08/17 17:51:07;;;;;;;14.50;9.77;;;;;;;;;;6259867;22;20231;-91
2023/08/17 17:54:13;;;;;;;12.75;7.72;;;;;;;;;;6261874;22;20150;-91
2023/08/17 17:57:19;;;;;;;19.60;8.32;;;;;;;;;;6262894;22;20198;-91
2023/08/17 18:00:26;;;;;;;15.80;9.13;;;;;;;;;;6261925;22;20163;-92
2023/08/17 18:03:32;;;;;;;14.57;9.90;;;;;;;;;;6264831;22;20598;-92
2023/08/17 18:06:39;;;;;;;19.20;10.27;;;;;;;;;;6263312;23;20163;-90
2023/08/17 18:09:47;;;;;;;18.63;9.85;;;;;;;;;;6264058;22;20154;-92
2023/08/17 18:16:14;;;;;;;14.13;9.77;;;;;;;;;;6265124;22;20226;-92
2023/08/17 18:19:19;;;;;;;13.90;9.65;;;;;;;;;;6264645;22;20231;-91
2023/08/17 18:22:24;;;;;;;17.98;10.32;;;;;;;;;;6262811;22;20500;-90
2023/08/17 18:25:31;;;;;;;18.27;9.40;;;;;;;;;;6264198;23;20154;-93
2023/08/17 18:28:37;;;;;;;14.95;10.50;;;;;;;;;;6262877;22;20169;-91